sensor_id;sensor_type;location;lat;lon;timestamp;pressure;altitude;pressure_sealevel;temperature;humidity
64211;BME280;50528;48.514;14.394;2023-03-16T00:00:07;94086.27;;;0.92;71.04
64211;BME280;50528;48.514;14.394;2023-03-16T00:01:07;94085.60;;;0.88;71.00
64211;BME280;50528;48.514;14.394;2023-03-16T00:01:40;94081.12;;;0.82;70.97
64211;BME280;50528;48.514;14.394;2023-03-16T00:02:14;94086.55;;;0.84;70.99
64211;BME280;50528;48.514;14.394;2023-03-16T00:02:47;94084.67;;;0.83;71.03
64211;BME280;50528;48.514;14.394;2023-03-16T00:03:21;94083.20;;;0.83;70.99
64211;BME280;50528;48.514;14.394;2023-03-16T00:03:58;94083.59;;;0.81;70.88
64211;BME280;50528;48.514;14.394;2023-03-16T00:04:32;94084.98;;;0.81;70.99
64211;BME280;50528;48.514;14.394;2023-03-16T00:05:11;94085.48;;;0.80;70.88
64211;BME280;50528;48.514;14.394;2023-03-16T00:05:51;94087.45;;;0.79;70.88
64211;BME280;50528;48.514;14.394;2023-03-16T00:06:25;94088.07;;;0.78;70.83
64211;BME280;50528;48.514;14.394;2023-03-16T00:06:58;94080.82;;;0.71;70.83
64211;BME280;50528;48.514;14.394;2023-03-16T00:07:32;94088.42;;;0.77;70.89
64211;BME280;50528;48.514;14.394;2023-03-16T00:08:06;94089.31;;;0.76;70.84
64211;BME280;50528;48.514;14.394;2023-03-16T00:08:39;94089.54;;;0.76;70.88
64211;BME280;50528;48.514;14.394;2023-03-16T00:09:15;94086.58;;;0.75;70.78
64211;BME280;50528;48.514;14.394;2023-03-16T00:09:49;94090.26;;;0.76;70.85
64211;BME280;50528;48.514;14.394;2023-03-16T00:10:25;94091.84;;;0.75;70.81
64211;BME280;50528;48.514;14.394;2023-03-16T00:11:01;94093.95;;;0.75;70.82
64211;BME280;50528;48.514;14.394;2023-03-16T00:11:35;94092.27;;;0.75;70.74
64211;BME280;50528;48.514;14.394;2023-03-16T00:12:14;94090.89;;;0.73;70.76
64211;BME280;50528;48.514;14.394;2023-03-16T00:12:48;94094.94;;;0.73;70.80
64211;BME280;50528;48.514;14.394;2023-03-16T00:13:22;94092.29;;;0.71;70.71
64211;BME280;50528;48.514;14.394;2023-03-16T00:13:56;94090.85;;;0.71;70.79
64211;BME280;50528;48.514;14.394;2023-03-16T00:14:31;94093.55;;;0.69;70.76
64211;BME280;50528;48.514;14.394;2023-03-16T00:15:08;94093.60;;;0.69;70.77
64211;BME280;50528;48.514;14.394;2023-03-16T00:15:49;94092.46;;;0.69;70.74
64211;BME280;50528;48.514;14.394;2023-03-16T00:16:23;94095.48;;;0.68;70.66
64211;BME280;50528;48.514;14.394;2023-03-16T00:16:57;94093.63;;;0.66;70.72
64211;BME280;50528;48.514;14.394;2023-03-16T00:17:30;94096.89;;;0.66;70.69
64211;BME280;50528;48.514;14.394;2023-03-16T00:18:04;94097.71;;;0.65;70.67
64211;BME280;50528;48.514;14.394;2023-03-16T00:18:37;94093.38;;;0.64;70.68
64211;BME280;50528;48.514;14.394;2023-03-16T00:19:14;94098.78;;;0.64;70.67
64211;BME280;50528;48.514;14.394;2023-03-16T00:19:50;94097.36;;;0.62;70.63
64211;BME280;50528;48.514;14.394;2023-03-16T00:20:27;94095.98;;;0.61;70.64
64211;BME280;50528;48.514;14.394;2023-03-16T00:21:01;94093.86;;;0.59;70.58
64211;BME280;50528;48.514;14.394;2023-03-16T00:21:35;94096.20;;;0.58;70.47
64211;BME280;50528;48.514;14.394;2023-03-16T00:22:09;94094.18;;;0.56;70.46
64211;BME280;50528;48.514;14.394;2023-03-16T00:22:47;94094.31;;;0.55;70.35
64211;BME280;50528;48.514;14.394;2023-03-16T00:23:21;94094.13;;;0.53;70.34
64211;BME280;50528;48.514;14.394;2023-03-16T00:23:59;94098.23;;;0.52;70.34
64211;BME280;50528;48.514;14.394;2023-03-16T00:24:36;94097.77;;;0.51;70.30
64211;BME280;50528;48.514;14.394;2023-03-16T00:25:11;94097.99;;;0.48;70.29
64211;BME280;50528;48.514;14.394;2023-03-16T00:25:47;94099.11;;;0.47;70.24
64211;BME280;50528;48.514;14.394;2023-03-16T00:26:21;94103.48;;;0.44;70.17
64211;BME280;50528;48.514;14.394;2023-03-16T00:26:54;94098.20;;;0.42;70.16
64211;BME280;50528;48.514;14.394;2023-03-16T00:27:28;94097.63;;;0.41;70.27
64211;BME280;50528;48.514;14.394;2023-03-16T00:28:02;94098.50;;;0.39;70.20
64211;BME280;50528;48.514;14.394;2023-03-16T00:28:36;94100.80;;;0.39;70.24
64211;BME280;50528;48.514;14.394;2023-03-16T00:29:10;94105.20;;;0.38;70.30
64211;BME280;50528;48.514;14.394;2023-03-16T00:29:45;94100.84;;;0.37;70.28
64211;BME280;50528;48.514;14.394;2023-03-16T00:30:19;94103.24;;;0.35;70.27
64211;BME280;50528;48.514;14.394;2023-03-16T00:30:53;94099.63;;;0.34;70.20
64211;BME280;50528;48.514;14.394;2023-03-16T00:31:31;94103.54;;;0.33;70.22
64211;BME280;50528;48.514;14.394;2023-03-16T00:32:09;94101.63;;;0.30;70.20
64211;BME280;50528;48.514;14.394;2023-03-16T00:32:44;94103.77;;;0.30;70.27
64211;BME280;50528;48.514;14.394;2023-03-16T00:33:17;94103.34;;;0.28;70.26
64211;BME280;50528;48.514;14.394;2023-03-16T00:33:52;94104.52;;;0.26;70.23
64211;BME280;50528;48.514;14.394;2023-03-16T00:34:25;94106.75;;;0.25;70.28
64211;BME280;50528;48.514;14.394;2023-03-16T00:35:05;94105.25;;;0.22;70.25
64211;BME280;50528;48.514;14.394;2023-03-16T00:35:45;94106.29;;;0.20;70.24
64211;BME280;50528;48.514;14.394;2023-03-16T00:36:22;94110.23;;;0.17;70.29
64211;BME280;50528;48.514;14.394;2023-03-16T00:36:55;94107.55;;;0.15;70.27
64211;BME280;50528;48.514;14.394;2023-03-16T00:37:30;94107.16;;;0.14;70.32
64211;BME280;50528;48.514;14.394;2023-03-16T00:38:04;94108.48;;;0.13;70.30
64211;BME280;50528;48.514;14.394;2023-03-16T00:38:40;94111.23;;;0.12;70.36
64211;BME280;50528;48.514;14.394;2023-03-16T00:39:17;94112.18;;;0.09;70.30
64211;BME280;50528;48.514;14.394;2023-03-16T00:39:52;94108.70;;;0.08;70.32
64211;BME280;50528;48.514;14.394;2023-03-16T00:40:30;94111.98;;;0.07;70.29
64211;BME280;50528;48.514;14.394;2023-03-16T00:41:05;94108.23;;;0.05;70.34
64211;BME280;50528;48.514;14.394;2023-03-16T00:41:38;94107.62;;;0.05;70.34
64211;BME280;50528;48.514;14.394;2023-03-16T00:42:13;94108.33;;;0.04;70.35
64211;BME280;50528;48.514;14.394;2023-03-16T00:42:48;94110.20;;;0.03;70.36
64211;BME280;50528;48.514;14.394;2023-03-16T00:43:21;94107.95;;;0.01;70.27
64211;BME280;50528;48.514;14.394;2023-03-16T00:43:55;94107.55;;;0.00;70.30
64211;BME280;50528;48.514;14.394;2023-03-16T00:44:28;94107.59;;;-0.00;70.30
64211;BME280;50528;48.514;14.394;2023-03-16T00:45:02;94106.67;;;-0.01;70.31
64211;BME280;50528;48.514;14.394;2023-03-16T00:45:39;94104.26;;;-0.03;70.27
64211;BME280;50528;48.514;14.394;2023-03-16T00:46:16;94107.47;;;-0.05;70.18
64211;BME280;50528;48.514;14.394;2023-03-16T00:46:50;94112.66;;;-0.07;70.23
64211;BME280;50528;48.514;14.394;2023-03-16T00:47:25;94110.05;;;-0.08;70.24
64211;BME280;50528;48.514;14.394;2023-03-16T00:48:00;94105.21;;;-0.09;70.21
64211;BME280;50528;48.514;14.394;2023-03-16T00:48:35;94111.48;;;-0.10;70.15
64211;BME280;50528;48.514;14.394;2023-03-16T00:49:09;94111.14;;;-0.11;70.23
64211;BME280;50528;48.514;14.394;2023-03-16T00:49:43;94110.52;;;-0.12;70.17
64211;BME280;50528;48.514;14.394;2023-03-16T00:50:16;94109.45;;;-0.13;70.14
64211;BME280;50528;48.514;14.394;2023-03-16T00:50:50;94112.34;;;-0.14;70.13
64211;BME280;50528;48.514;14.394;2023-03-16T00:51:26;94109.23;;;-0.19;70.06
64211;BME280;50528;48.514;14.394;2023-03-16T00:52:04;94112.35;;;-0.19;69.98
64211;BME280;50528;48.514;14.394;2023-03-16T00:52:39;94112.17;;;-0.22;69.93
64211;BME280;50528;48.514;14.394;2023-03-16T00:53:14;94116.11;;;-0.24;69.95
64211;BME280;50528;48.514;14.394;2023-03-16T00:53:48;94109.05;;;-0.28;69.95
64211;BME280;50528;48.514;14.394;2023-03-16T00:54:22;94111.24;;;-0.30;69.98
64211;BME280;50528;48.514;14.394;2023-03-16T00:54:55;94097.38;;;-0.38;69.96
64211;BME280;50528;48.514;14.394;2023-03-16T00:55:29;94107.19;;;-0.32;69.94
64211;BME280;50528;48.514;14.394;2023-03-16T00:56:05;94104.92;;;-0.35;69.97
64211;BME280;50528;48.514;14.394;2023-03-16T00:56:38;94110.04;;;-0.36;69.99
64211;BME280;50528;48.514;14.394;2023-03-16T00:57:14;94111.55;;;-0.37;69.94
64211;BME280;50528;48.514;14.394;2023-03-16T00:57:57;94105.97;;;-0.42;69.97
64211;BME280;50528;48.514;14.394;2023-03-16T00:58:32;94111.97;;;-0.45;70.04
64211;BME280;50528;48.514;14.394;2023-03-16T00:59:08;94109.28;;;-0.45;69.97
64211;BME280;50528;48.514;14.394;2023-03-16T00:59:41;94111.48;;;-0.46;70.12
64211;BME280;50528;48.514;14.394;2023-03-16T01:00:15;94112.16;;;-0.46;70.01
64211;BME280;50528;48.514;14.394;2023-03-16T01:00:51;94110.67;;;-0.48;70.00
64211;BME280;50528;48.514;14.394;2023-03-16T01:01:26;94111.63;;;-0.50;69.98
64211;BME280;50528;48.514;14.394;2023-03-16T01:02:00;94108.25;;;-0.52;69.99
64211;BME280;50528;48.514;14.394;2023-03-16T01:02:37;94112.40;;;-0.54;70.02
64211;BME280;50528;48.514;14.394;2023-03-16T01:03:15;94110.02;;;-0.56;70.06
64211;BME280;50528;48.514;14.394;2023-03-16T01:03:54;94108.27;;;-0.59;70.09
64211;BME280;50528;48.514;14.394;2023-03-16T01:04:34;94106.77;;;-0.62;70.12
64211;BME280;50528;48.514;14.394;2023-03-16T01:05:09;94108.48;;;-0.62;70.10
64211;BME280;50528;48.514;14.394;2023-03-16T01:05:43;94107.23;;;-0.63;70.12
64211;BME280;50528;48.514;14.394;2023-03-16T01:06:17;94106.96;;;-0.64;70.16
64211;BME280;50528;48.514;14.394;2023-03-16T01:06:53;94106.41;;;-0.65;70.07
64211;BME280;50528;48.514;14.394;2023-03-16T01:07:27;94108.58;;;-0.66;70.10
64211;BME280;50528;48.514;14.394;2023-03-16T01:08:03;94106.59;;;-0.68;70.09
64211;BME280;50528;48.514;14.394;2023-03-16T01:08:38;94109.27;;;-0.67;70.12
64211;BME280;50528;48.514;14.394;2023-03-16T01:09:13;94108.62;;;-0.69;70.12
64211;BME280;50528;48.514;14.394;2023-03-16T01:09:47;94109.59;;;-0.72;70.07
64211;BME280;50528;48.514;14.394;2023-03-16T01:10:20;94107.91;;;-0.74;70.03
64211;BME280;50528;48.514;14.394;2023-03-16T01:11:07;94107.49;;;-0.74;70.13
64211;BME280;50528;48.514;14.394;2023-03-16T01:11:45;94111.23;;;-0.80;70.17
64211;BME280;50528;48.514;14.394;2023-03-16T01:12:21;94112.61;;;-0.82;70.12
64211;BME280;50528;48.514;14.394;2023-03-16T01:12:54;94110.56;;;-0.83;70.21
64211;BME280;50528;48.514;14.394;2023-03-16T01:13:28;94110.83;;;-0.84;70.30
64211;BME280;50528;48.514;14.394;2023-03-16T01:14:02;94107.92;;;-0.85;70.22
64211;BME280;50528;48.514;14.394;2023-03-16T01:14:36;94113.38;;;-0.86;70.27
64211;BME280;50528;48.514;14.394;2023-03-16T01:15:10;94110.61;;;-0.87;70.27
64211;BME280;50528;48.514;14.394;2023-03-16T01:15:43;94110.83;;;-0.88;70.41
64211;BME280;50528;48.514;14.394;2023-03-16T01:16:18;94108.09;;;-0.88;70.38
64211;BME280;50528;48.514;14.394;2023-03-16T01:16:54;94108.88;;;-0.89;70.43
64211;BME280;50528;48.514;14.394;2023-03-16T01:17:28;94105.93;;;-0.90;70.41
64211;BME280;50528;48.514;14.394;2023-03-16T01:18:01;94108.52;;;-0.91;70.55
64211;BME280;50528;48.514;14.394;2023-03-16T01:18:35;94110.21;;;-0.91;70.47
64211;BME280;50528;48.514;14.394;2023-03-16T01:19:13;94111.70;;;-0.92;70.55
64211;BME280;50528;48.514;14.394;2023-03-16T01:19:52;94110.09;;;-0.93;70.53
64211;BME280;50528;48.514;14.394;2023-03-16T01:20:26;94108.52;;;-0.94;70.57
64211;BME280;50528;48.514;14.394;2023-03-16T01:21:02;94109.31;;;-0.95;70.56
64211;BME280;50528;48.514;14.394;2023-03-16T01:21:40;94105.91;;;-0.97;70.56
64211;BME280;50528;48.514;14.394;2023-03-16T01:28:44;94112.48;;;-1.19;70.61
64211;BME280;50528;48.514;14.394;2023-03-16T01:29:19;94114.89;;;-1.19;70.78
64211;BME280;50528;48.514;14.394;2023-03-16T01:29:53;94111.98;;;-1.19;70.75
64211;BME280;50528;48.514;14.394;2023-03-16T01:30:27;94110.20;;;-1.20;70.77
64211;BME280;50528;48.514;14.394;2023-03-16T01:31:04;94117.44;;;-1.18;70.76
64211;BME280;50528;48.514;14.394;2023-03-16T01:31:39;94115.95;;;-1.19;70.75
64211;BME280;50528;48.514;14.394;2023-03-16T01:32:15;94113.46;;;-1.20;70.84
64211;BME280;50528;48.514;14.394;2023-03-16T01:32:48;94114.46;;;-1.18;70.88
64211;BME280;50528;48.514;14.394;2023-03-16T01:33:26;94113.12;;;-1.18;70.90
64211;BME280;50528;48.514;14.394;2023-03-16T01:34:00;94118.60;;;-1.20;70.95
64211;BME280;50528;48.514;14.394;2023-03-16T01:34:36;94113.61;;;-1.20;70.87
64211;BME280;50528;48.514;14.394;2023-03-16T01:35:10;94117.34;;;-1.21;70.91
64211;BME280;50528;48.514;14.394;2023-03-16T01:35:54;94119.11;;;-1.21;70.90
64211;BME280;50528;48.514;14.394;2023-03-16T01:36:28;94122.38;;;-1.23;70.74
64211;BME280;50528;48.514;14.394;2023-03-16T01:37:06;94122.76;;;-1.28;70.89
64211;BME280;50528;48.514;14.394;2023-03-16T01:37:48;94122.29;;;-1.32;71.03
64211;BME280;50528;48.514;14.394;2023-03-16T01:38:27;94127.67;;;-1.34;71.11
64211;BME280;50528;48.514;14.394;2023-03-16T01:39:01;94123.01;;;-1.35;71.17
64211;BME280;50528;48.514;14.394;2023-03-16T01:39:42;94123.09;;;-1.39;71.09
64211;BME280;50528;48.514;14.394;2023-03-16T01:40:16;94126.31;;;-1.40;71.19
64211;BME280;50528;48.514;14.394;2023-03-16T01:40:51;94122.45;;;-1.43;71.29
64211;BME280;50528;48.514;14.394;2023-03-16T01:41:26;94124.38;;;-1.41;71.39
64211;BME280;50528;48.514;14.394;2023-03-16T01:41:59;94124.02;;;-1.41;71.36
64211;BME280;50528;48.514;14.394;2023-03-16T01:42:47;94125.78;;;-1.42;71.47
64211;BME280;50528;48.514;14.394;2023-03-16T01:43:24;94121.92;;;-1.42;71.33
64211;BME280;50528;48.514;14.394;2023-03-16T01:44:00;94124.05;;;-1.43;71.49
64211;BME280;50528;48.514;14.394;2023-03-16T01:44:54;94120.40;;;-1.43;71.53
64211;BME280;50528;48.514;14.394;2023-03-16T01:46:06;94122.30;;;-1.44;71.41
64211;BME280;50528;48.514;14.394;2023-03-16T01:46:45;94115.89;;;-1.48;71.47
64211;BME280;50528;48.514;14.394;2023-03-16T01:47:19;94115.21;;;-1.49;71.51
64211;BME280;50528;48.514;14.394;2023-03-16T01:47:52;94117.29;;;-1.47;71.56
64211;BME280;50528;48.514;14.394;2023-03-16T01:48:26;94113.55;;;-1.48;71.57
64211;BME280;50528;48.514;14.394;2023-03-16T01:49:43;94117.20;;;-1.45;71.70
64211;BME280;50528;48.514;14.394;2023-03-16T01:50:20;94115.86;;;-1.45;71.72
64211;BME280;50528;48.514;14.394;2023-03-16T01:50:55;94117.57;;;-1.45;71.66
64211;BME280;50528;48.514;14.394;2023-03-16T01:52:12;94115.86;;;-1.43;71.69
64211;BME280;50528;48.514;14.394;2023-03-16T01:52:46;94119.05;;;-1.43;71.78
64211;BME280;50528;48.514;14.394;2023-03-16T01:53:22;94116.34;;;-1.43;71.74
64211;BME280;50528;48.514;14.394;2023-03-16T01:54:05;94119.25;;;-1.43;71.72
64211;BME280;50528;48.514;14.394;2023-03-16T01:54:51;94117.54;;;-1.43;71.75
64211;BME280;50528;48.514;14.394;2023-03-16T01:55:26;94118.08;;;-1.43;71.79
64211;BME280;50528;48.514;14.394;2023-03-16T01:56:02;94120.18;;;-1.43;71.76
64211;BME280;50528;48.514;14.394;2023-03-16T01:56:57;94119.76;;;-1.43;71.70
64211;BME280;50528;48.514;14.394;2023-03-16T01:57:35;94120.98;;;-1.45;71.65
64211;BME280;50528;48.514;14.394;2023-03-16T01:58:11;94118.31;;;-1.45;71.73
64211;BME280;50528;48.514;14.394;2023-03-16T01:58:46;94121.18;;;-1.45;71.68
64211;BME280;50528;48.514;14.394;2023-03-16T01:59:27;94119.77;;;-1.44;71.62
64211;BME280;50528;48.514;14.394;2023-03-16T02:00:12;94119.40;;;-1.44;71.59
64211;BME280;50528;48.514;14.394;2023-03-16T02:01:08;94119.95;;;-1.46;71.65
64211;BME280;50528;48.514;14.394;2023-03-16T02:01:43;94114.95;;;-1.49;71.60
64211;BME280;50528;48.514;14.394;2023-03-16T02:02:20;94120.11;;;-1.46;71.65
64211;BME280;50528;48.514;14.394;2023-03-16T02:02:58;94117.41;;;-1.47;71.52
64211;BME280;50528;48.514;14.394;2023-03-16T02:03:43;94118.33;;;-1.50;71.55
64211;BME280;50528;48.514;14.394;2023-03-16T02:04:26;94123.77;;;-1.50;71.54
64211;BME280;50528;48.514;14.394;2023-03-16T02:05:11;94121.88;;;-1.51;71.54
64211;BME280;50528;48.514;14.394;2023-03-16T02:06:39;94124.11;;;-1.54;71.51
64211;BME280;50528;48.514;14.394;2023-03-16T02:07:13;94121.54;;;-1.54;71.54
64211;BME280;50528;48.514;14.394;2023-03-16T02:07:51;94120.80;;;-1.54;71.47
64211;BME280;50528;48.514;14.394;2023-03-16T02:08:30;94123.70;;;-1.54;71.54
64211;BME280;50528;48.514;14.394;2023-03-16T02:09:05;94124.70;;;-1.57;71.58
64211;BME280;50528;48.514;14.394;2023-03-16T02:09:41;94124.21;;;-1.57;71.60
64211;BME280;50528;48.514;14.394;2023-03-16T02:10:19;94122.80;;;-1.57;71.49
64211;BME280;50528;48.514;14.394;2023-03-16T02:10:54;94123.86;;;-1.57;71.53
64211;BME280;50528;48.514;14.394;2023-03-16T02:11:35;94128.02;;;-1.56;71.43
64211;BME280;50528;48.514;14.394;2023-03-16T02:12:13;94125.63;;;-1.56;71.44
64211;BME280;50528;48.514;14.394;2023-03-16T02:12:55;94124.20;;;-1.57;71.42
64211;BME280;50528;48.514;14.394;2023-03-16T02:13:30;94125.59;;;-1.57;71.48
64211;BME280;50528;48.514;14.394;2023-03-16T02:14:09;94125.38;;;-1.57;71.48
64211;BME280;50528;48.514;14.394;2023-03-16T02:14:45;94124.15;;;-1.56;71.51
64211;BME280;50528;48.514;14.394;2023-03-16T02:15:19;94128.14;;;-1.57;71.50
64211;BME280;50528;48.514;14.394;2023-03-16T02:15:52;94126.59;;;-1.57;71.51
64211;BME280;50528;48.514;14.394;2023-03-16T02:16:26;94127.41;;;-1.56;71.56
64211;BME280;50528;48.514;14.394;2023-03-16T02:17:00;94126.73;;;-1.56;71.56
64211;BME280;50528;48.514;14.394;2023-03-16T02:17:34;94127.53;;;-1.56;71.57
64211;BME280;50528;48.514;14.394;2023-03-16T02:18:13;94124.73;;;-1.57;71.59
64211;BME280;50528;48.514;14.394;2023-03-16T02:18:47;94125.89;;;-1.57;71.66
64211;BME280;50528;48.514;14.394;2023-03-16T02:20:05;94127.14;;;-1.57;71.58
64211;BME280;50528;48.514;14.394;2023-03-16T02:20:57;94126.64;;;-1.62;71.61
64211;BME280;50528;48.514;14.394;2023-03-16T02:22:00;94125.16;;;-1.64;71.64
64211;BME280;50528;48.514;14.394;2023-03-16T02:22:38;94128.56;;;-1.67;71.65
64211;BME280;50528;48.514;14.394;2023-03-16T02:23:17;94130.98;;;-1.67;71.72
64211;BME280;50528;48.514;14.394;2023-03-16T02:23:52;94134.80;;;-1.68;71.73
64211;BME280;50528;48.514;14.394;2023-03-16T02:24:25;94135.20;;;-1.68;71.73
64211;BME280;50528;48.514;14.394;2023-03-16T02:24:59;94134.71;;;-1.68;71.69
64211;BME280;50528;48.514;14.394;2023-03-16T02:26:46;94136.48;;;-1.70;71.68
64211;BME280;50528;48.514;14.394;2023-03-16T02:27:38;94135.92;;;-1.75;71.63
64211;BME280;50528;48.514;14.394;2023-03-16T02:28:20;94137.95;;;-1.74;71.65
64211;BME280;50528;48.514;14.394;2023-03-16T02:29:11;94139.37;;;-1.75;71.63
64211;BME280;50528;48.514;14.394;2023-03-16T02:29:57;94138.40;;;-1.75;71.76
64211;BME280;50528;48.514;14.394;2023-03-16T02:30:37;94141.08;;;-1.76;71.83
64211;BME280;50528;48.514;14.394;2023-03-16T02:31:10;94141.33;;;-1.76;71.76
64211;BME280;50528;48.514;14.394;2023-03-16T02:31:45;94141.63;;;-1.75;71.84
64211;BME280;50528;48.514;14.394;2023-03-16T02:32:20;94145.00;;;-1.74;71.86
64211;BME280;50528;48.514;14.394;2023-03-16T02:32:54;94142.11;;;-1.73;71.84
64211;BME280;50528;48.514;14.394;2023-03-16T02:33:29;94142.54;;;-1.72;71.89
64211;BME280;50528;48.514;14.394;2023-03-16T02:34:04;94146.27;;;-1.72;71.85
64211;BME280;50528;48.514;14.394;2023-03-16T02:34:40;94144.77;;;-1.71;71.81
64211;BME280;50528;48.514;14.394;2023-03-16T02:35:14;94147.12;;;-1.70;71.79
64211;BME280;50528;48.514;14.394;2023-03-16T02:35:47;94147.27;;;-1.70;71.80
64211;BME280;50528;48.514;14.394;2023-03-16T02:36:21;94147.02;;;-1.69;71.74
64211;BME280;50528;48.514;14.394;2023-03-16T02:36:55;94146.77;;;-1.68;71.72
64211;BME280;50528;48.514;14.394;2023-03-16T02:37:30;94146.27;;;-1.69;71.71
64211;BME280;50528;48.514;14.394;2023-03-16T02:38:06;94145.79;;;-1.69;71.69
64211;BME280;50528;48.514;14.394;2023-03-16T02:38:44;94142.28;;;-1.70;71.69
64211;BME280;50528;48.514;14.394;2023-03-16T02:39:19;94147.60;;;-1.70;71.60
64211;BME280;50528;48.514;14.394;2023-03-16T02:39:55;94145.06;;;-1.70;71.64
64211;BME280;50528;48.514;14.394;2023-03-16T02:40:31;94144.23;;;-1.70;71.64
64211;BME280;50528;48.514;14.394;2023-03-16T02:41:16;94147.47;;;-1.70;71.61
64211;BME280;50528;48.514;14.394;2023-03-16T02:41:51;94146.19;;;-1.71;71.48
64211;BME280;50528;48.514;14.394;2023-03-16T02:42:25;94145.61;;;-1.72;71.56
64211;BME280;50528;48.514;14.394;2023-03-16T02:43:15;94145.05;;;-1.73;71.54
64211;BME280;50528;48.514;14.394;2023-03-16T02:44:09;94147.32;;;-1.75;71.54
64211;BME280;50528;48.514;14.394;2023-03-16T02:44:54;94147.31;;;-1.78;71.56
64211;BME280;50528;48.514;14.394;2023-03-16T02:45:38;94145.66;;;-1.80;71.47
64211;BME280;50528;48.514;14.394;2023-03-16T02:46:13;94146.18;;;-1.82;71.48
64211;BME280;50528;48.514;14.394;2023-03-16T02:46:48;94148.15;;;-1.83;71.50
64211;BME280;50528;48.514;14.394;2023-03-16T02:47:28;94149.34;;;-1.83;71.51
64211;BME280;50528;48.514;14.394;2023-03-16T02:48:08;94149.41;;;-1.83;71.49
64211;BME280;50528;48.514;14.394;2023-03-16T02:48:52;94151.38;;;-1.84;71.52
64211;BME280;50528;48.514;14.394;2023-03-16T02:50:45;94150.96;;;-1.91;71.43
64211;BME280;50528;48.514;14.394;2023-03-16T02:51:19;94153.61;;;-1.97;71.49
64211;BME280;50528;48.514;14.394;2023-03-16T02:51:53;94155.54;;;-1.97;71.40
64211;BME280;50528;48.514;14.394;2023-03-16T02:52:27;94151.61;;;-1.99;71.44
64211;BME280;50528;48.514;14.394;2023-03-16T02:53:01;94153.00;;;-1.97;71.45
64211;BME280;50528;48.514;14.394;2023-03-16T02:53:34;94154.84;;;-1.97;71.53
64211;BME280;50528;48.514;14.394;2023-03-16T02:54:08;94150.70;;;-1.98;71.58
64211;BME280;50528;48.514;14.394;2023-03-16T02:54:41;94151.63;;;-1.96;71.67
64211;BME280;50528;48.514;14.394;2023-03-16T02:55:15;94155.27;;;-1.96;71.63
64211;BME280;50528;48.514;14.394;2023-03-16T02:55:50;94150.89;;;-1.95;71.61
64211;BME280;50528;48.514;14.394;2023-03-16T02:56:24;94149.02;;;-1.95;71.66
64211;BME280;50528;48.514;14.394;2023-03-16T02:56:57;94149.70;;;-1.95;71.65
64211;BME280;50528;48.514;14.394;2023-03-16T02:57:31;94150.56;;;-1.97;71.60
64211;BME280;50528;48.514;14.394;2023-03-16T02:58:09;94151.81;;;-1.97;71.53
64211;BME280;50528;48.514;14.394;2023-03-16T02:58:43;94152.06;;;-1.98;71.52
64211;BME280;50528;48.514;14.394;2023-03-16T02:59:20;94155.30;;;-1.99;71.45
64211;BME280;50528;48.514;14.394;2023-03-16T02:59:53;94153.53;;;-2.01;71.49
64211;BME280;50528;48.514;14.394;2023-03-16T03:00:27;94153.05;;;-2.01;71.47
64211;BME280;50528;48.514;14.394;2023-03-16T03:01:02;94158.45;;;-2.02;71.51
64211;BME280;50528;48.514;14.394;2023-03-16T03:01:37;94154.04;;;-2.02;71.45
64211;BME280;50528;48.514;14.394;2023-03-16T03:02:11;94157.62;;;-2.02;71.43
64211;BME280;50528;48.514;14.394;2023-03-16T03:02:45;94157.10;;;-2.02;71.47
64211;BME280;50528;48.514;14.394;2023-03-16T03:03:18;94158.00;;;-2.02;71.44
64211;BME280;50528;48.514;14.394;2023-03-16T03:03:52;94157.00;;;-2.03;71.45
64211;BME280;50528;48.514;14.394;2023-03-16T03:04:25;94156.65;;;-2.02;71.38
64211;BME280;50528;48.514;14.394;2023-03-16T03:04:59;94159.93;;;-2.03;71.38
64211;BME280;50528;48.514;14.394;2023-03-16T03:05:34;94159.93;;;-2.03;71.35
64211;BME280;50528;48.514;14.394;2023-03-16T03:06:08;94165.02;;;-2.04;71.37
64211;BME280;50528;48.514;14.394;2023-03-16T03:06:42;94164.69;;;-2.04;71.35
64211;BME280;50528;48.514;14.394;2023-03-16T03:07:15;94162.30;;;-2.04;71.37
64211;BME280;50528;48.514;14.394;2023-03-16T03:08:05;94162.16;;;-2.06;71.28
64211;BME280;50528;48.514;14.394;2023-03-16T03:08:40;94162.45;;;-2.08;71.36
64211;BME280;50528;48.514;14.394;2023-03-16T03:09:15;94162.55;;;-2.08;71.43
64211;BME280;50528;48.514;14.394;2023-03-16T03:09:48;94161.93;;;-2.08;71.43
64211;BME280;50528;48.514;14.394;2023-03-16T03:10:22;94165.77;;;-2.08;71.38
64211;BME280;50528;48.514;14.394;2023-03-16T03:10:55;94162.73;;;-2.09;71.36
64211;BME280;50528;48.514;14.394;2023-03-16T03:11:29;94165.79;;;-2.10;71.40
64211;BME280;50528;48.514;14.394;2023-03-16T03:12:02;94167.92;;;-2.09;71.45
64211;BME280;50528;48.514;14.394;2023-03-16T03:12:36;94164.95;;;-2.10;71.43
64211;BME280;50528;48.514;14.394;2023-03-16T03:13:12;94164.85;;;-2.12;71.38
64211;BME280;50528;48.514;14.394;2023-03-16T03:13:46;94168.10;;;-2.11;71.28
64211;BME280;50528;48.514;14.394;2023-03-16T03:14:22;94168.50;;;-2.14;71.29
64211;BME280;50528;48.514;14.394;2023-03-16T03:14:58;94170.70;;;-2.12;71.17
64211;BME280;50528;48.514;14.394;2023-03-16T03:15:33;94167.77;;;-2.15;71.19
64211;BME280;50528;48.514;14.394;2023-03-16T03:16:11;94170.42;;;-2.15;71.12
64211;BME280;50528;48.514;14.394;2023-03-16T03:16:45;94168.12;;;-2.16;71.07
64211;BME280;50528;48.514;14.394;2023-03-16T03:17:19;94168.34;;;-2.16;71.12
64211;BME280;50528;48.514;14.394;2023-03-16T03:17:52;94168.04;;;-2.16;71.07
64211;BME280;50528;48.514;14.394;2023-03-16T03:18:26;94167.40;;;-2.17;71.12
64211;BME280;50528;48.514;14.394;2023-03-16T03:19:00;94165.20;;;-2.17;71.08
64211;BME280;50528;48.514;14.394;2023-03-16T03:19:35;94163.86;;;-2.18;71.10
64211;BME280;50528;48.514;14.394;2023-03-16T03:20:10;94165.36;;;-2.18;71.09
64211;BME280;50528;48.514;14.394;2023-03-16T03:20:50;94163.48;;;-2.19;71.08
64211;BME280;50528;48.514;14.394;2023-03-16T03:21:24;94166.50;;;-2.20;71.11
64211;BME280;50528;48.514;14.394;2023-03-16T03:22:02;94166.09;;;-2.21;71.07
64211;BME280;50528;48.514;14.394;2023-03-16T03:22:36;94165.48;;;-2.21;71.10
64211;BME280;50528;48.514;14.394;2023-03-16T03:23:10;94167.53;;;-2.23;71.11